Time;durP1;ratioP1;P1;durP2;ratioP2;P2;SDS_P1;SDS_P2;PMS_P1;PMS_P2;Temp;Humidity;BMP_temperature;BMP_pressure;BME280_temperature;BME280_humidity;BME280_pressure;Samples;Min_cycle;Max_cycle;Signal;HPM_P1;HPM_P2
2023/12/10 00:00:11;;;;;;;3.78;1.83;;;13.40;69.40;;;;;;7624091;23;20036;-91
2023/12/10 00:03:12;;;;;;;4.43;2.17;;;13.50;68.10;;;;;;7614802;23;20508;-92
2023/12/10 00:06:13;;;;;;;5.30;1.70;;;13.60;67.10;;;;;;7589747;23;20006;-92
2023/12/10 00:09:14;;;;;;;4.68;1.42;;;13.80;66.70;;;;;;7609755;23;20017;-94
2023/12/10 00:12:15;;;;;;;2.70;1.27;;;13.80;66.30;;;;;;7609774;23;20502;-92
2023/12/10 00:15:16;;;;;;;2.58;1.27;;;14.00;65.70;;;;;;7607523;23;20014;-92
2023/12/10 00:18:18;;;;;;;1.30;0.95;;;14.10;64.60;;;;;;7656625;23;20014;-91
2023/12/10 00:21:19;;;;;;;1.05;0.60;;;14.20;63.60;;;;;;7669493;23;20493;-92
2023/12/10 00:24:22;;;;;;;1.00;0.63;;;14.30;62.80;;;;;;7754675;22;20079;-92
2023/12/10 00:27:23;;;;;;;4.13;0.90;;;14.30;61.80;;;;;;7734037;22;20458;-92
2023/12/10 00:30:25;;;;;;;6.93;0.80;;;14.40;60.00;;;;;;7734849;22;20027;-91
2023/12/10 00:33:27;;;;;;;2.05;0.80;;;14.60;59.70;;;;;;7709476;22;20016;-92
2023/12/10 00:36:28;;;;;;;3.60;1.25;;;14.70;59.40;;;;;;7732560;22;20008;-91
2023/12/10 00:39:29;;;;;;;4.82;0.75;;;14.80;59.20;;;;;;7736656;22;20318;-91
2023/12/10 00:42:31;;;;;;;6.40;1.52;;;14.90;59.30;;;;;;7734710;22;20388;-91
2023/12/10 00:45:32;;;;;;;4.20;0.88;;;15.00;59.10;;;;;;7761535;22;20095;-89
2023/12/10 00:48:40;;;;;;;1.55;0.90;;;15.00;58.60;;;;;;7735411;22;20035;-92
2023/12/10 00:51:41;;;;;;;;;;;15.00;58.20;;;;;;7790519;22;20713;-91
2023/12/10 00:54:42;;;;;;;3.90;1.00;;;15.00;58.10;;;;;;7798396;22;19907;-92
2023/12/10 00:57:46;;;;;;;2.67;1.30;;;15.00;58.10;;;;;;7773898;22;20018;-91
2023/12/10 01:00:51;;;;;;;1.67;1.00;;;14.90;58.30;;;;;;7825528;22;20085;-91
2023/12/10 01:03:52;;;;;;;3.63;0.93;;;14.90;58.70;;;;;;7773106;22;20018;-91
2023/12/10 01:06:55;;;;;;;12.82;1.48;;;14.80;58.70;;;;;;7798486;22;20003;-91
2023/12/10 01:09:56;;;;;;;3.13;0.70;;;14.80;58.40;;;;;;7772349;22;20425;-90
2023/12/10 01:12:57;;;;;;;1.42;0.80;;;14.70;58.30;;;;;;7772494;22;20351;-91
2023/12/10 01:15:58;;;;;;;1.65;0.70;;;14.80;58.10;;;;;;7771277;22;20037;-92
2023/12/10 01:19:00;;;;;;;1.17;0.60;;;14.80;57.20;;;;;;7772099;22;20023;-91
2023/12/10 01:22:01;;;;;;;8.77;1.00;;;14.90;56.70;;;;;;7771770;22;20441;-92
2023/12/10 01:25:03;;;;;;;3.50;0.80;;;15.00;56.50;;;;;;7797011;22;20011;-92
2023/12/10 01:28:05;;;;;;;5.25;0.70;;;15.20;56.30;;;;;;7772006;22;20376;-90
2023/12/10 01:31:06;;;;;;;1.52;0.57;;;15.30;56.00;;;;;;7770756;22;20045;-91
2023/12/10 01:34:07;;;;;;;4.90;1.00;;;15.20;55.60;;;;;;7772539;22;20027;-91
2023/12/10 01:37:08;;;;;;;2.25;0.75;;;15.30;55.40;;;;;;7769897;22;20090;-92
2023/12/10 01:40:13;;;;;;;3.45;0.93;;;15.40;55.00;;;;;;7796962;22;20577;-92
2023/12/10 01:43:17;;;;;;;2.28;0.70;;;15.40;54.60;;;;;;7745666;22;20015;-92
2023/12/10 01:46:21;;;;;;;4.35;0.70;;;15.50;54.80;;;;;;7771441;22;20004;-92
2023/12/10 01:49:28;;;;;;;4.72;0.85;;;15.50;54.40;;;;;;7773255;22;20105;-92
2023/12/10 01:52:30;;;;;;;7.53;1.02;;;15.50;54.10;;;;;;7773305;22;20015;-90
2023/12/10 01:55:33;;;;;;;7.80;1.30;;;15.50;54.10;;;;;;7770297;22;20019;-92
2023/12/10 01:58:35;;;;;;;3.90;1.02;;;15.40;53.80;;;;;;7771004;22;20076;-91
2023/12/10 02:01:37;;;;;;;9.20;1.10;;;15.50;53.80;;;;;;7797044;22;20061;-91
2023/12/10 02:04:39;;;;;;;3.85;0.60;;;15.50;53.60;;;;;;7771504;22;20018;-91
2023/12/10 02:07:44;;;;;;;5.40;0.63;;;15.40;53.90;;;;;;7746036;22;20012;-93
2023/12/10 02:10:45;;;;;;;7.55;0.70;;;15.40;54.10;;;;;;7771320;22;20003;-91
2023/12/10 02:13:47;;;;;;;2.58;1.20;;;15.40;54.10;;;;;;7770539;22;20027;-91
2023/12/10 02:16:49;;;;;;;1.38;0.80;;;15.30;53.80;;;;;;7770307;22;20083;-91
2023/12/10 02:19:53;;;;;;;7.18;0.65;;;15.40;53.80;;;;;;7770655;22;20022;-91
2023/12/10 02:23:06;;;;;;;3.95;0.93;;;15.40;54.10;;;;;;7746645;22;20015;-90
2023/12/10 02:26:07;;;;;;;3.03;0.63;;;15.40;54.10;;;;;;7771844;22;20014;-91
2023/12/10 02:29:17;;;;;;;1.13;0.73;;;15.40;54.10;;;;;;7747018;22;20106;-91
2023/12/10 02:32:18;;;;;;;3.75;1.13;;;15.40;53.60;;;;;;7771950;22;20023;-90
2023/12/10 02:35:22;;;;;;;4.55;0.77;;;15.40;53.70;;;;;;7796464;22;20007;-93
2023/12/10 02:38:26;;;;;;;1.45;0.93;;;15.20;54.30;;;;;;7797593;22;20003;-92
2023/12/10 02:41:31;;;;;;;2.35;0.80;;;14.90;55.10;;;;;;7771347;22;20008;-91
2023/12/10 02:44:33;;;;;;;4.28;0.60;;;14.60;55.80;;;;;;7771258;22;20372;-90
2023/12/10 02:47:37;;;;;;;5.53;1.55;;;14.40;56.40;;;;;;7724048;22;20110;-90
2023/12/10 02:50:43;;;;;;;1.20;0.45;;;14.20;56.70;;;;;;7772513;22;20078;-91
2023/12/10 02:54:06;;;;;;;2.15;0.43;;;14.10;57.10;;;;;;7802561;22;20016;-93
2023/12/10 02:57:08;;;;;;;4.85;0.70;;;14.10;57.30;;;;;;7798855;22;20141;-90
2023/12/10 03:00:11;;;;;;;7.53;0.77;;;14.10;58.10;;;;;;7799980;22;20091;-91
2023/12/10 03:03:14;;;;;;;1.42;0.40;;;14.10;57.40;;;;;;7799619;22;20067;-92
2023/12/10 03:06:18;;;;;;;4.68;0.32;;;14.10;57.30;;;;;;7799703;22;20011;-91
2023/12/10 03:09:20;;;;;;;5.50;0.93;;;14.10;57.40;;;;;;7746940;22;20007;-91
2023/12/10 03:12:22;;;;;;;1.30;0.57;;;14.10;57.40;;;;;;7747214;22;20015;-92
2023/12/10 03:15:23;;;;;;;0.77;0.50;;;14.10;57.20;;;;;;7746515;22;20012;-92
2023/12/10 03:18:32;;;;;;;6.50;1.15;;;14.20;57.20;;;;;;7799575;22;20003;-90
2023/12/10 03:21:34;;;;;;;3.88;0.95;;;14.20;57.30;;;;;;7772817;22;20388;-90
2023/12/10 03:24:38;;;;;;;5.85;1.05;;;14.20;57.40;;;;;;7798467;22;20076;-91
2023/12/10 03:27:40;;;;;;;3.20;0.60;;;14.20;57.60;;;;;;7748537;22;20004;-92
2023/12/10 03:30:43;;;;;;;5.68;0.82;;;14.20;57.60;;;;;;7772808;22;20095;-90
2023/12/10 03:33:43;;;;;;;8.68;0.88;;;14.30;57.80;;;;;;7781954;22;20096;-90
2023/12/10 03:36:47;;;;;;;9.25;1.15;;;14.20;57.70;;;;;;7781102;22;20435;-89
2023/12/10 03:39:48;;;;;;;3.28;0.65;;;14.20;57.90;;;;;;7754059;22;20060;-90
2023/12/10 03:42:49;;;;;;;5.10;1.15;;;14.20;58.00;;;;;;7778036;22;20011;-91
2023/12/10 03:45:54;;;;;;;3.00;1.05;;;14.10;58.20;;;;;;7776768;22;20405;-92
2023/12/10 03:48:57;;;;;;;2.58;0.85;;;14.10;58.40;;;;;;7829565;22;20052;-91
2023/12/10 03:52:00;;;;;;;4.47;1.40;;;14.00;58.40;;;;;;7770201;22;20011;-90
2023/12/10 03:55:04;;;;;;;4.45;1.15;;;14.00;58.50;;;;;;7771702;22;20126;-91
2023/12/10 03:58:08;;;;;;;5.40;1.77;;;14.00;58.70;;;;;;7772355;22;20429;-91
2023/12/10 04:01:11;;;;;;;2.45;0.93;;;14.20;58.90;;;;;;7798397;22;20011;-90
2023/12/10 04:04:12;;;;;;;6.28;1.30;;;14.00;58.90;;;;;;7772312;22;20007;-89
2023/12/10 04:07:17;;;;;;;4.05;1.30;;;13.90;58.90;;;;;;7771299;22;20014;-91
2023/12/10 04:10:20;;;;;;;3.72;0.80;;;13.80;59.30;;;;;;7797822;22;20086;-90
2023/12/10 04:13:24;;;;;;;3.00;1.05;;;13.80;59.40;;;;;;7825915;22;20074;-91
2023/12/10 04:16:30;;;;;;;1.20;1.10;;;13.60;59.60;;;;;;7772447;22;20094;-92
2023/12/10 04:19:31;;;;;;;5.93;1.35;;;13.60;59.80;;;;;;7772827;22;20087;-90
2023/12/10 04:22:35;;;;;;;4.03;0.98;;;13.50;59.90;;;;;;7823184;22;20007;-92
2023/12/10 04:25:36;;;;;;;4.55;1.33;;;13.50;60.10;;;;;;7772364;22;20167;-91
2023/12/10 04:28:43;;;;;;;4.18;1.05;;;13.50;60.20;;;;;;7770462;22;20058;-91
2023/12/10 04:31:44;;;;;;;1.85;0.85;;;13.50;60.40;;;;;;7721614;22;20064;-91
2023/12/10 04:34:46;;;;;;;5.25;1.50;;;13.50;60.40;;;;;;7771345;22;20116;-90
2023/12/10 04:37:48;;;;;;;4.28;0.90;;;13.40;60.40;;;;;;7799730;22;20007;-91
2023/12/10 04:40:49;;;;;;;5.40;1.30;;;13.20;60.50;;;;;;7770696;22;20016;-91
2023/12/10 04:43:52;;;;;;;5.15;1.48;;;13.30;60.70;;;;;;7794662;22;20007;-92
2023/12/10 04:46:54;;;;;;;5.72;1.25;;;13.20;61.00;;;;;;7770194;22;20863;-89
2023/12/10 04:49:55;;;;;;;5.07;1.42;;;13.30;61.60;;;;;;7797140;22;20015;-91
2023/12/10 04:52:57;;;;;;;2.10;1.30;;;13.00;61.90;;;;;;7771891;22;20094;-91
2023/12/10 04:56:01;;;;;;;4.70;1.23;;;12.90;62.20;;;;;;7745554;22;20011;-92
2023/12/10 04:59:05;;;;;;;2.38;1.20;;;12.80;62.80;;;;;;7771846;22;20011;-90
2023/12/10 05:02:06;;;;;;;8.63;1.52;;;12.70;63.10;;;;;;7770709;22;20322;-91
2023/12/10 05:05:14;;;;;;;4.43;1.23;;;12.70;64.20;;;;;;7797363;22;20145;-91
2023/12/10 05:08:22;;;;;;;3.35;1.10;;;12.60;63.50;;;;;;7772368;22;20003;-92
2023/12/10 05:11:25;;;;;;;4.20;1.00;;;12.60;63.70;;;;;;7769767;22;20026;-90
2023/12/10 05:14:26;;;;;;;5.88;1.80;;;12.60;63.80;;;;;;7771268;22;20026;-90
2023/12/10 05:17:27;;;;;;;8.50;2.25;;;12.50;64.00;;;;;;7770609;22;20019;-90
2023/12/10 05:20:28;;;;;;;6.20;1.42;;;12.50;64.20;;;;;;7770728;22;20049;-92
2023/12/10 05:23:31;;;;;;;3.17;1.67;;;12.40;64.60;;;;;;7772297;22;20007;-92
2023/12/10 05:26:33;;;;;;;6.75;1.85;;;12.40;64.80;;;;;;7770928;22;20007;-91
2023/12/10 05:29:34;;;;;;;4.95;1.73;;;12.40;65.00;;;;;;7771941;22;20030;-92
2023/12/10 05:32:44;;;;;;;2.42;1.38;;;12.30;64.90;;;;;;7771818;22;20199;-91
2023/12/10 05:35:52;;;;;;;3.17;1.65;;;12.30;65.20;;;;;;7796469;22;20011;-91
2023/12/10 05:38:55;;;;;;;5.40;1.55;;;12.40;65.20;;;;;;7771691;22;20098;-92
2023/12/10 05:41:58;;;;;;;13.93;1.75;;;12.30;65.20;;;;;;7797233;22;20011;-90
2023/12/10 05:45:04;;;;;;;5.55;1.08;;;12.40;65.40;;;;;;7824831;22;20374;-92
2023/12/10 05:48:05;;;;;;;6.22;1.15;;;12.40;65.50;;;;;;7770837;22;20018;-92
2023/12/10 05:51:09;;;;;;;4.28;1.20;;;12.40;65.50;;;;;;7747217;22;20468;-91
2023/12/10 05:54:13;;;;;;;2.00;1.00;;;12.40;65.60;;;;;;7797587;22;20015;-91
2023/12/10 05:57:18;;;;;;;6.13;2.10;;;12.40;65.60;;;;;;7771674;22;20036;-90
2023/12/10 06:00:20;;;;;;;5.25;2.17;;;12.40;65.60;;;;;;7748187;22;20016;-91
2023/12/10 06:03:25;;;;;;;5.18;2.47;;;12.40;65.50;;;;;;7771850;22;20011;-91
2023/12/10 06:06:27;;;;;;;8.35;2.40;;;12.40;65.60;;;;;;7745558;22;20088;-89
2023/12/10 06:09:28;;;;;;;13.02;2.25;;;12.30;65.60;;;;;;7770941;22;20012;-91
2023/12/10 06:12:29;;;;;;;8.10;2.75;;;12.40;65.80;;;;;;7772056;22;20089;-92
2023/12/10 06:15:30;;;;;;;4.80;2.10;;;12.30;65.70;;;;;;7771519;22;20412;-91
2023/12/10 06:18:31;;;;;;;4.40;2.35;;;12.30;65.80;;;;;;7771652;22;20004;-91
2023/12/10 06:21:34;;;;;;;8.45;3.28;;;12.30;65.90;;;;;;7771965;22;20049;-91
2023/12/10 06:24:37;;;;;;;5.65;2.70;;;12.30;65.90;;;;;;7745318;22;20419;-91
2023/12/10 06:27:45;;;;;;;6.82;2.92;;;12.30;65.90;;;;;;7799423;22;20324;-89
2023/12/10 06:30:49;;;;;;;8.55;2.65;;;12.30;66.10;;;;;;7826000;22;20106;-91
2023/12/10 06:33:52;;;;;;;13.32;2.30;;;12.20;66.10;;;;;;7797686;22;20091;-89
2023/12/10 06:36:55;;;;;;;2.58;1.85;;;12.10;66.10;;;;;;7775178;22;20059;-91
2023/12/10 06:39:58;;;;;;;9.77;3.75;;;12.10;66.20;;;;;;7776453;22;20159;-91
2023/12/10 06:43:01;;;;;;;4.82;2.95;;;12.10;66.40;;;;;;7777758;22;20011;-90
2023/12/10 06:46:07;;;;;;;6.38;2.88;;;12.10;66.50;;;;;;7803702;22;20061;-92
2023/12/10 06:49:09;;;;;;;6.38;2.53;;;12.10;66.50;;;;;;7804070;22;20076;-92
2023/12/10 06:52:11;;;;;;;13.25;3.10;;;12.10;66.50;;;;;;7778137;22;20094;-91
2023/12/10 06:55:12;;;;;;;8.30;2.58;;;12.10;66.50;;;;;;7775999;22;20023;-90
2023/12/10 06:58:17;;;;;;;4.75;2.10;;;12.10;66.50;;;;;;7777100;22;20019;-91
2023/12/10 07:01:18;;;;;;;8.77;2.40;;;12.10;66.70;;;;;;7778167;22;20087;-90
2023/12/10 07:04:21;;;;;;;6.55;2.67;;;12.10;66.90;;;;;;7791699;22;20003;-92
2023/12/10 07:07:23;;;;;;;3.47;2.10;;;12.10;67.10;;;;;;7794776;22;20026;-93
2023/12/10 07:10:24;;;;;;;3.78;1.88;;;12.10;67.30;;;;;;7771965;22;20015;-91
2023/12/10 07:13:30;;;;;;;3.40;1.52;;;12.00;67.30;;;;;;7837458;22;20080;-91
2023/12/10 07:16:33;;;;;;;6.28;2.03;;;12.00;67.40;;;;;;7729217;22;20524;-90
2023/12/10 07:19:35;;;;;;;9.38;2.78;;;12.00;67.40;;;;;;7804920;22;20229;-92
2023/12/10 07:22:41;;;;;;;7.30;2.17;;;11.90;67.40;;;;;;7749964;22;20130;-91
2023/12/10 07:25:43;;;;;;;2.30;1.42;;;11.90;67.50;;;;;;7802355;22;20011;-92
2023/12/10 07:28:53;;;;;;;10.75;3.10;;;11.90;67.50;;;;;;7752916;22;20076;-93
2023/12/10 07:31:55;;;;;;;5.65;1.88;;;11.90;67.70;;;;;;7750128;22;20183;-90
2023/12/10 07:34:58;;;;;;;7.28;2.15;;;11.90;67.70;;;;;;7774290;22;20082;-91
2023/12/10 07:38:01;;;;;;;15.25;2.50;;;11.90;67.70;;;;;;7746546;22;20019;-91
2023/12/10 07:41:05;;;;;;;10.05;2.13;;;11.90;67.70;;;;;;7773581;22;20018;-92
2023/12/10 07:44:12;;;;;;;3.80;2.22;;;12.00;67.70;;;;;;7798413;22;20011;-90
2023/12/10 07:47:18;;;;;;;3.83;1.77;;;12.00;67.60;;;;;;7798406;22;20011;-91
2023/12/10 07:50:23;;;;;;;3.67;1.75;;;12.00;67.50;;;;;;7801169;22;20018;-91
2023/12/10 07:53:24;;;;;;;5.47;1.85;;;12.00;67.50;;;;;;7799158;22;20411;-91
2023/12/10 07:56:31;;;;;;;5.85;1.67;;;12.00;67.60;;;;;;7802951;22;20528;-91
2023/12/10 07:59:34;;;;;;;4.05;1.20;;;12.00;67.60;;;;;;7801077;22;20038;-91
2023/12/10 08:02:41;;;;;;;8.93;2.00;;;11.90;67.60;;;;;;7802908;22;20396;-89
2023/12/10 08:05:46;;;;;;;3.90;1.83;;;11.90;67.60;;;;;;7753446;22;20011;-91
2023/12/10 08:08:53;;;;;;;4.32;1.48;;;11.90;67.80;;;;;;7774261;22;20007;-91
2023/12/10 08:11:55;;;;;;;3.17;1.88;;;11.80;67.90;;;;;;7799601;22;20011;-90
2023/12/10 08:14:58;;;;;;;5.40;2.08;;;11.90;68.20;;;;;;7795916;22;20064;-90
2023/12/10 08:18:02;;;;;;;4.25;1.80;;;11.90;68.20;;;;;;7769118;22;20022;-89
2023/12/10 08:21:05;;;;;;;5.68;2.22;;;11.90;68.20;;;;;;7801101;22;20051;-90
2023/12/10 08:24:09;;;;;;;8.10;2.88;;;11.90;68.10;;;;;;7822504;22;20086;-90
2023/12/10 08:27:10;;;;;;;4.63;2.00;;;12.00;68.00;;;;;;7769514;22;20440;-90
2023/12/10 08:30:13;;;;;;;8.15;3.08;;;12.00;68.00;;;;;;7770175;22;20007;-91
2023/12/10 08:33:14;;;;;;;8.02;2.70;;;12.00;68.00;;;;;;7771515;22;20026;-92
2023/12/10 08:36:17;;;;;;;11.85;3.58;;;12.00;68.00;;;;;;7795311;22;20030;-90
2023/12/10 08:39:18;;;;;;;7.00;3.03;;;12.10;68.10;;;;;;7770245;22;20090;-92
2023/12/10 08:42:19;;;;;;;6.18;2.70;;;12.20;68.00;;;;;;7772294;22;20358;-90
2023/12/10 08:45:20;;;;;;;10.95;2.67;;;12.30;68.00;;;;;;7771513;22;20064;-90
2023/12/10 08:48:22;;;;;;;6.85;3.05;;;12.30;67.80;;;;;;7796113;22;20042;-91
2023/12/10 08:51:24;;;;;;;12.40;4.40;;;12.40;68.00;;;;;;7748210;22;20023;-92
2023/12/10 08:54:25;;;;;;;16.23;6.90;;;12.30;67.80;;;;;;7771623;22;20041;-89
2023/12/10 08:57:29;;;;;;;10.68;4.78;;;12.30;67.80;;;;;;7773943;22;20011;-91
2023/12/10 09:00:30;;;;;;;8.27;4.78;;;12.40;68.00;;;;;;7775805;22;20076;-90
2023/12/10 09:03:32;;;;;;;12.00;4.28;;;12.50;68.00;;;;;;7777595;22;20008;-91
2023/12/10 09:06:34;;;;;;;12.50;3.92;;;12.60;67.70;;;;;;7778058;22;20003;-91
2023/12/10 09:09:36;;;;;;;8.18;3.17;;;12.70;67.60;;;;;;7778150;22;20011;-91
2023/12/10 09:12:37;;;;;;;9.10;3.67;;;12.80;67.20;;;;;;7778055;22;20340;-91
2023/12/10 09:15:41;;;;;;;8.77;3.63;;;12.90;67.00;;;;;;7804384;22;20084;-90
2023/12/10 09:18:47;;;;;;;6.55;2.90;;;13.00;66.80;;;;;;7781263;22;20090;-90
2023/12/10 09:21:59;;;;;;;7.22;2.55;;;13.00;66.40;;;;;;7779426;22;20011;-92
2023/12/10 09:25:07;;;;;;;7.80;2.38;;;13.20;66.30;;;;;;7782031;22;20014;-93
2023/12/10 12:36:13;;;;;;;7.68;3.47;;;16.60;51.50;;;;;;7824876;22;20008;-90
2023/12/10 12:39:15;;;;;;;3.50;1.02;;;16.40;51.40;;;;;;7775880;22;20011;-89
2023/12/10 12:42:17;;;;;;;3.38;1.30;;;16.40;51.30;;;;;;7770370;22;20472;-91
2023/12/10 12:45:19;;;;;;;7.55;2.50;;;16.40;51.20;;;;;;7772535;22;20030;-92
2023/12/10 12:48:21;;;;;;;11.77;2.90;;;16.30;51.10;;;;;;7770967;22;20051;-91
2023/12/10 12:51:48;;;;;;;9.73;2.20;;;16.30;51.20;;;;;;7782123;22;20086;-90
2023/12/10 12:55:21;;;;;;;11.07;3.25;;;16.20;51.50;;;;;;7823978;22;20021;-92
2023/12/10 12:58:47;;;;;;;12.18;2.95;;;16.10;51.70;;;;;;7803183;22;20019;-90
2023/12/10 13:02:16;;;;;;;11.32;3.38;;;16.10;52.00;;;;;;7826451;22;20063;-91
2023/12/10 13:05:43;;;;;;;15.73;2.42;;;16.10;52.30;;;;;;7831219;22;20026;-91
2023/12/10 13:09:19;;;;;;;15.68;4.63;;;16.10;52.40;;;;;;7808978;22;20015;-93
2023/12/10 13:12:49;;;;;;;7.97;2.35;;;16.10;52.60;;;;;;7838865;22;20011;-93
2023/12/10 13:16:17;;;;;;;12.07;3.20;;;16.20;52.60;;;;;;7771763;22;20315;-95
2023/12/10 13:19:43;;;;;;;8.73;2.55;;;16.20;52.50;;;;;;7815549;22;20023;-94
2023/12/10 13:23:10;;;;;;;13.75;2.67;;;16.30;52.60;;;;;;7841734;22;20047;-93
2023/12/10 13:26:41;;;;;;;9.63;2.08;;;16.20;52.60;;;;;;7818619;22;20019;-95
2023/12/10 13:30:14;;;;;;;10.65;1.92;;;16.20;52.50;;;;;;7817328;22;20111;-96
2023/12/10 13:33:46;;;;;;;7.25;2.25;;;16.20;52.40;;;;;;7839486;22;20007;-95
2023/12/10 13:37:12;;;;;;;9.20;2.80;;;16.20;52.40;;;;;;7800261;22;20349;-95
2023/12/10 13:40:40;;;;;;;5.85;1.90;;;16.40;52.50;;;;;;7817632;22;20043;-96
2023/12/10 13:44:11;;;;;;;13.90;2.10;;;16.20;52.30;;;;;;7818263;22;20083;-96
2023/12/10 13:47:54;;;;;;;11.82;1.42;;;16.30;52.40;;;;;;7816703;22;20008;-96
2023/12/10 13:51:21;;;;;;;13.05;1.98;;;16.30;52.40;;;;;;7816933;22;20031;-94
2023/12/10 13:54:51;;;;;;;5.60;1.98;;;16.30;52.20;;;;;;7797115;22;20039;-94
2023/12/10 13:58:17;;;;;;;6.65;1.73;;;16.40;52.30;;;;;;7824010;22;20125;-94
2023/12/10 14:01:43;;;;;;;10.32;2.10;;;16.40;52.10;;;;;;7806672;22;20011;-96
2023/12/10 14:05:16;;;;;;;7.07;1.73;;;16.40;51.80;;;;;;7824549;22;20479;-95
2023/12/10 14:08:53;;;;;;;6.82;1.70;;;16.50;52.00;;;;;;7826282;22;20022;-96
2023/12/10 14:12:19;;;;;;;4.88;1.55;;;16.40;51.70;;;;;;7820475;22;20060;-93
2023/12/10 14:15:46;;;;;;;4.10;1.55;;;16.30;51.60;;;;;;7819527;22;20011;-95
2023/12/10 14:19:11;;;;;;;10.43;2.90;;;16.50;51.60;;;;;;7820693;22;20016;-92
2023/12/10 14:22:39;;;;;;;7.32;2.50;;;16.60;51.60;;;;;;7823092;22;20340;-96
2023/12/10 14:26:06;;;;;;;7.45;1.55;;;16.60;51.30;;;;;;7823077;22;20035;-94
2023/12/10 14:29:31;;;;;;;6.70;1.30;;;16.70;51.30;;;;;;7822294;22;20146;-94
2023/12/10 14:32:58;;;;;;;6.43;2.40;;;16.70;51.10;;;;;;7822238;22;20015;-95
2023/12/10 14:36:31;;;;;;;8.45;1.92;;;16.70;51.10;;;;;;7816640;22;20015;-96
2023/12/10 14:40:05;;;;;;;2.40;1.35;;;16.60;51.20;;;;;;7817915;22;20045;-94
2023/12/10 14:43:34;;;;;;;6.40;1.95;;;16.50;51.30;;;;;;7799538;22;20023;-94
2023/12/10 14:47:03;;;;;;;2.53;1.42;;;16.50;51.50;;;;;;7818456;22;20117;-94
2023/12/10 14:50:29;;;;;;;5.65;1.65;;;16.40;51.60;;;;;;7841051;22;19999;-94
2023/12/10 14:54:21;;;;;;;5.88;1.98;;;16.40;51.80;;;;;;7837685;22;20023;-94
2023/12/10 14:57:49;;;;;;;12.05;1.75;;;16.20;51.90;;;;;;7814494;22;20099;-95
2023/12/10 15:01:18;;;;;;;7.32;2.00;;;16.20;52.00;;;;;;7833375;22;20018;-94
2023/12/10 15:04:46;;;;;;;4.07;1.58;;;16.20;52.00;;;;;;7814040;22;20090;-93
2023/12/10 15:08:13;;;;;;;7.43;2.05;;;16.10;52.10;;;;;;7793537;22;20020;-94
2023/12/10 15:11:41;;;;;;;3.05;1.52;;;15.90;52.20;;;;;;7812499;22;20011;-94
2023/12/10 15:15:11;;;;;;;6.30;1.60;;;16.00;52.40;;;;;;7835915;22;20015;-94
2023/12/10 15:18:40;;;;;;;8.35;1.85;;;15.90;52.40;;;;;;7834798;22;20019;-94
2023/12/10 15:22:11;;;;;;;2.38;1.27;;;15.90;52.60;;;;;;7772653;22;20035;-95
2023/12/10 15:25:39;;;;;;;8.35;1.92;;;15.90;52.70;;;;;;7812847;22;20099;-95
2023/12/10 15:29:06;;;;;;;4.82;1.83;;;15.90;52.70;;;;;;7756454;22;20027;-94
2023/12/10 15:32:33;;;;;;;10.77;2.50;;;15.70;52.60;;;;;;7754505;22;20015;-93
2023/12/10 15:36:01;;;;;;;13.13;1.90;;;15.70;52.70;;;;;;7755543;22;20121;-96
2023/12/10 15:39:28;;;;;;;19.05;2.70;;;15.70;52.80;;;;;;7757147;22;20023;-94
2023/12/10 15:42:55;;;;;;;4.53;2.28;;;15.70;52.90;;;;;;7757729;22;20039;-95
2023/12/10 15:46:23;;;;;;;8.20;2.20;;;15.70;52.90;;;;;;7794080;22;20024;-96
2023/12/10 15:49:52;;;;;;;7.50;2.17;;;15.60;52.80;;;;;;7775950;22;20027;-95
2023/12/10 15:53:27;;;;;;;4.57;1.67;;;15.60;52.90;;;;;;7778338;22;20019;-95
2023/12/10 15:56:54;;;;;;;7.82;2.05;;;15.60;53.00;;;;;;7775496;22;20016;-93
2023/12/10 16:00:20;;;;;;;8.88;2.75;;;15.60;53.00;;;;;;7752310;22;20024;-95
2023/12/10 16:03:58;;;;;;;6.03;1.90;;;15.40;53.10;;;;;;7796589;22;20067;-95
2023/12/10 16:07:29;;;;;;;8.10;1.88;;;15.40;53.10;;;;;;7776488;22;20020;-94
2023/12/10 16:10:56;;;;;;;6.47;2.30;;;15.40;53.20;;;;;;7772976;22;20039;-94
2023/12/10 16:14:21;;;;;;;11.80;3.22;;;15.50;53.30;;;;;;7772477;22;20061;-93
2023/12/10 16:17:49;;;;;;;13.90;3.25;;;15.50;53.30;;;;;;7794264;22;20015;-94
2023/12/10 16:21:23;;;;;;;12.40;3.67;;;15.70;53.40;;;;;;7772203;22;20019;-95
2023/12/10 16:24:50;;;;;;;13.45;3.00;;;15.50;53.50;;;;;;7770047;22;20063;-94
2023/12/10 16:28:18;;;;;;;15.90;4.60;;;15.50;53.80;;;;;;7771915;22;20015;-95
2023/12/10 16:31:45;;;;;;;13.85;4.05;;;15.50;54.10;;;;;;7772985;22;20095;-95
2023/12/10 16:35:12;;;;;;;11.82;4.28;;;15.40;54.30;;;;;;7794778;22;20023;-95
2023/12/10 16:38:39;;;;;;;11.52;3.75;;;15.40;54.50;;;;;;7775016;22;20008;-96
2023/12/10 16:42:08;;;;;;;14.20;5.15;;;15.40;54.70;;;;;;7794505;22;20019;-92
2023/12/10 16:45:34;;;;;;;18.67;7.13;;;15.30;54.90;;;;;;7771959;22;20046;-95
2023/12/10 16:49:02;;;;;;;12.05;4.80;;;15.30;54.90;;;;;;7795553;22;20222;-94
2023/12/10 16:52:29;;;;;;;11.07;4.05;;;15.40;55.10;;;;;;7774665;22;20086;-94
2023/12/10 16:55:56;;;;;;;9.73;3.42;;;15.30;55.10;;;;;;7753605;22;20028;-92
2023/12/10 16:59:57;;;;;;;;;;;;;;;;;;;;;
2023/12/10 17:03:24;;;;;;;17.08;7.03;;;15.20;55.10;;;;;;7791339;22;20011;-94
2023/12/10 17:06:50;;;;;;;7.43;3.45;;;15.10;55.10;;;;;;7769729;22;20050;-93
2023/12/10 17:10:16;;;;;;;13.68;5.47;;;15.00;55.30;;;;;;7767868;22;20016;-93
2023/12/10 17:13:44;;;;;;;21.55;5.82;;;15.00;55.50;;;;;;7769584;22;20015;-93
2023/12/10 17:17:10;;;;;;;15.73;6.05;;;14.80;55.60;;;;;;7786968;22;20182;-93
2023/12/10 17:20:38;;;;;;;5.07;2.10;;;14.90;55.70;;;;;;7786172;22;20023;-93
2023/12/10 17:24:05;;;;;;;6.88;2.17;;;14.90;55.90;;;;;;7766889;22;20043;-94
2023/12/10 17:27:34;;;;;;;9.60;3.38;;;14.80;55.50;;;;;;7769475;22;20016;-92
2023/12/10 17:31:00;;;;;;;13.57;3.58;;;14.60;55.60;;;;;;7787314;22;20019;-93
2023/12/10 17:34:30;;;;;;;9.40;4.28;;;14.70;55.80;;;;;;7765855;22;20015;-95
2023/12/10 17:37:57;;;;;;;8.20;4.25;;;14.60;55.90;;;;;;7748913;22;20019;-93
2023/12/10 17:41:22;;;;;;;13.80;5.25;;;14.70;55.90;;;;;;7767921;22;20091;-94
2023/12/10 17:44:49;;;;;;;18.85;5.63;;;14.80;55.90;;;;;;7767099;22;20019;-93
2023/12/10 17:48:16;;;;;;;9.27;4.55;;;14.80;55.70;;;;;;7766563;22;20063;-93
2023/12/10 17:51:42;;;;;;;21.25;4.35;;;14.80;55.70;;;;;;7768365;22;20111;-93
2023/12/10 17:55:10;;;;;;;9.80;4.28;;;14.80;55.80;;;;;;7790474;22;20015;-94
2023/12/10 17:58:36;;;;;;;16.27;5.05;;;14.80;55.90;;;;;;7765911;22;20028;-95
2023/12/10 18:02:03;;;;;;;17.30;4.78;;;14.70;56.10;;;;;;7747423;22;20020;-94
2023/12/10 18:05:30;;;;;;;18.10;5.57;;;14.70;56.30;;;;;;7767345;22;20028;-93
2023/12/10 18:08:58;;;;;;;13.48;4.88;;;14.70;56.30;;;;;;7791085;22;20090;-93
2023/12/10 18:12:23;;;;;;;11.13;4.70;;;14.70;56.40;;;;;;7769847;22;20015;-94
2023/12/10 18:15:54;;;;;;;22.80;7.32;;;14.60;56.40;;;;;;7767169;22;20180;-93
2023/12/10 18:19:22;;;;;;;17.35;7.03;;;14.50;56.60;;;;;;7766585;22;20039;-94
2023/12/10 18:22:50;;;;;;;10.60;3.90;;;14.60;56.60;;;;;;7769591;22;20019;-95
2023/12/10 18:26:15;;;;;;;13.93;3.30;;;14.60;56.50;;;;;;7749500;22;20098;-93
2023/12/10 18:29:41;;;;;;;21.10;5.55;;;14.60;56.40;;;;;;7775723;22;20059;-93
2023/12/10 18:33:10;;;;;;;12.18;4.22;;;14.70;56.30;;;;;;7771224;22;20019;-92
2023/12/10 18:36:38;;;;;;;15.60;3.90;;;14.60;56.30;;;;;;7790072;22;20024;-94
2023/12/10 18:40:05;;;;;;;7.15;3.40;;;14.70;56.30;;;;;;7792643;22;20422;-95
2023/12/10 18:43:32;;;;;;;12.27;4.75;;;14.70;56.10;;;;;;7772855;22;20028;-94
2023/12/10 18:46:57;;;;;;;17.65;5.10;;;14.80;55.80;;;;;;7793207;22;20008;-93
2023/12/10 18:50:25;;;;;;;14.18;5.45;;;14.80;55.70;;;;;;7793258;22;20016;-94
2023/12/10 18:53:56;;;;;;;24.52;5.50;;;14.80;55.60;;;;;;7793165;22;20020;-95
2023/12/10 18:57:36;;;;;;;22.60;8.07;;;14.90;55.50;;;;;;7803226;22;20098;-94
2023/12/10 19:01:04;;;;;;;9.98;3.03;;;15.10;55.70;;;;;;7771437;22;20030;-92
2023/12/10 19:04:34;;;;;;;11.82;3.53;;;14.80;55.30;;;;;;7753901;22;20024;-93
2023/12/10 19:08:00;;;;;;;13.45;4.90;;;14.80;55.30;;;;;;7794476;22;20012;-95
2023/12/10 19:11:27;;;;;;;8.63;3.30;;;14.70;55.10;;;;;;7793707;22;20016;-93
2023/12/10 19:14:54;;;;;;;7.07;3.65;;;14.90;55.30;;;;;;7793812;22;20015;-94
2023/12/10 19:18:21;;;;;;;9.95;3.55;;;15.10;55.50;;;;;;7791367;22;20019;-94
2023/12/10 19:21:49;;;;;;;12.90;3.47;;;14.80;55.50;;;;;;7793768;22;20043;-93
2023/12/10 19:25:15;;;;;;;10.60;4.47;;;14.90;55.70;;;;;;7791977;22;20408;-94
2023/12/10 19:28:41;;;;;;;17.33;5.22;;;15.00;55.80;;;;;;7790019;22;20143;-95
2023/12/10 19:32:08;;;;;;;26.13;5.35;;;14.90;56.00;;;;;;7770891;22;20039;-93
2023/12/10 19:35:34;;;;;;;18.02;4.93;;;14.90;56.20;;;;;;7771465;22;20024;-94
2023/12/10 19:39:23;;;;;;;11.57;3.20;;;14.80;56.40;;;;;;7773378;22;20170;-95
2023/12/10 19:42:51;;;;;;;12.55;2.72;;;14.80;56.60;;;;;;7772485;22;20070;-93
2023/12/10 19:46:18;;;;;;;5.90;2.42;;;14.70;56.70;;;;;;7792823;22;20180;-92
2023/12/10 19:49:50;;;;;;;7.97;2.22;;;14.60;56.90;;;;;;7771414;22;20035;-94